sensor_id;sensor_type;location;lat;lon;timestamp;pressure;altitude;pressure_sealevel;temperature;humidity
49473;BME280;67434;50.956;6.918;2023-04-24T00:00:42;99712.56;;;11.58;69.94
49473;BME280;67434;50.956;6.918;2023-04-24T00:03:10;99710.06;;;11.62;69.72
49473;BME280;67434;50.956;6.918;2023-04-24T00:05:36;99706.94;;;11.50;70.13
49473;BME280;67434;50.956;6.918;2023-04-24T00:08:01;99707.47;;;11.52;70.30
49473;BME280;67434;50.956;6.918;2023-04-24T00:10:26;99707.19;;;11.53;70.27
49473;BME280;67434;50.956;6.918;2023-04-24T00:12:52;99709.84;;;11.58;69.54
49473;BME280;67434;50.956;6.918;2023-04-24T00:15:17;99708.81;;;11.54;69.95
49473;BME280;67434;50.956;6.918;2023-04-24T00:17:48;99708.56;;;11.51;69.98
49473;BME280;67434;50.956;6.918;2023-04-24T00:20:14;99703.72;;;11.48;70.21
49473;BME280;67434;50.956;6.918;2023-04-24T00:22:40;99704.19;;;11.55;69.96
49473;BME280;67434;50.956;6.918;2023-04-24T00:25:05;99699.13;;;11.48;70.15
49473;BME280;67434;50.956;6.918;2023-04-24T00:27:31;99700.97;;;11.53;70.33
49473;BME280;67434;50.956;6.918;2023-04-24T00:29:56;99696.69;;;11.47;70.40
49473;BME280;67434;50.956;6.918;2023-04-24T00:32:24;99692.66;;;11.44;70.59
49473;BME280;67434;50.956;6.918;2023-04-24T00:34:49;99696.13;;;11.50;70.14
49473;BME280;67434;50.956;6.918;2023-04-24T00:37:14;99700.97;;;11.53;69.77
49473;BME280;67434;50.956;6.918;2023-04-24T00:39:40;99698.81;;;11.50;69.87
49473;BME280;67434;50.956;6.918;2023-04-24T00:42:05;99691.22;;;11.52;70.08
49473;BME280;67434;50.956;6.918;2023-04-24T00:44:32;99697.22;;;11.49;70.27
49473;BME280;67434;50.956;6.918;2023-04-24T00:46:57;99693.69;;;11.48;70.00
49473;BME280;67434;50.956;6.918;2023-04-24T00:49:24;99690.47;;;11.46;70.16
49473;BME280;67434;50.956;6.918;2023-04-24T00:51:50;99688.28;;;11.48;69.58
49473;BME280;67434;50.956;6.918;2023-04-24T00:54:16;99690.25;;;11.43;69.85
49473;BME280;67434;50.956;6.918;2023-04-24T00:56:43;99686.09;;;11.50;69.59
49473;BME280;67434;50.956;6.918;2023-04-24T00:59:09;99694.75;;;11.52;69.44
49473;BME280;67434;50.956;6.918;2023-04-24T01:01:34;99691.84;;;11.44;68.52
49473;BME280;67434;50.956;6.918;2023-04-24T01:03:59;99691.63;;;11.40;68.92
49473;BME280;67434;50.956;6.918;2023-04-24T01:06:27;99690.31;;;11.38;68.53
49473;BME280;67434;50.956;6.918;2023-04-24T01:08:53;99688.69;;;11.37;67.64
49473;BME280;67434;50.956;6.918;2023-04-24T01:11:19;99688.25;;;11.30;67.84
49473;BME280;67434;50.956;6.918;2023-04-24T01:13:48;99683.34;;;11.32;66.60
49473;BME280;67434;50.956;6.918;2023-04-24T01:16:17;99687.19;;;11.25;66.82
49473;BME280;67434;50.956;6.918;2023-04-24T01:18:45;99687.72;;;11.27;66.20
49473;BME280;67434;50.956;6.918;2023-04-24T01:21:11;99682.31;;;11.27;66.27
49473;BME280;67434;50.956;6.918;2023-04-24T01:23:38;99691.50;;;11.26;66.28
49473;BME280;67434;50.956;6.918;2023-04-24T01:26:03;99694.84;;;11.18;66.08
49473;BME280;67434;50.956;6.918;2023-04-24T01:28:28;99686.53;;;11.10;66.11
49473;BME280;67434;50.956;6.918;2023-04-24T01:30:54;99707.88;;;11.11;65.73
49473;BME280;67434;50.956;6.918;2023-04-24T01:33:20;99704.13;;;11.07;65.23
49473;BME280;67434;50.956;6.918;2023-04-24T01:35:46;99716.44;;;10.94;64.75
49473;BME280;67434;50.956;6.918;2023-04-24T01:38:11;99707.00;;;10.92;63.99
49473;BME280;67434;50.956;6.918;2023-04-24T01:40:39;99721.94;;;10.84;63.46
49473;BME280;67434;50.956;6.918;2023-04-24T01:43:04;99732.81;;;10.74;63.32
49473;BME280;67434;50.956;6.918;2023-04-24T01:45:30;99725.81;;;10.68;63.32
49473;BME280;67434;50.956;6.918;2023-04-24T01:47:58;99727.81;;;10.57;63.53
49473;BME280;67434;50.956;6.918;2023-04-24T01:50:23;99727.06;;;10.47;63.90
49473;BME280;67434;50.956;6.918;2023-04-24T01:52:48;99731.44;;;10.43;64.49
49473;BME280;67434;50.956;6.918;2023-04-24T01:55:14;99728.25;;;10.30;64.53
49473;BME280;67434;50.956;6.918;2023-04-24T01:57:49;99733.97;;;10.19;65.15
49473;BME280;67434;50.956;6.918;2023-04-24T02:00:15;99726.16;;;10.12;65.65
49473;BME280;67434;50.956;6.918;2023-04-24T02:02:40;99721.06;;;10.00;65.97
49473;BME280;67434;50.956;6.918;2023-04-24T02:05:12;99718.19;;;9.87;66.46
49473;BME280;67434;50.956;6.918;2023-04-24T02:07:37;99713.66;;;9.72;67.55
49473;BME280;67434;50.956;6.918;2023-04-24T02:10:03;99716.94;;;9.59;68.04
49473;BME280;67434;50.956;6.918;2023-04-24T02:12:29;99708.31;;;9.57;68.09
49473;BME280;67434;50.956;6.918;2023-04-24T02:14:54;99719.13;;;9.47;68.83
49473;BME280;67434;50.956;6.918;2023-04-24T02:17:20;99731.81;;;9.41;69.09
49473;BME280;67434;50.956;6.918;2023-04-24T02:19:45;99726.72;;;9.34;69.30
49473;BME280;67434;50.956;6.918;2023-04-24T02:22:11;99729.69;;;9.18;69.87
49473;BME280;67434;50.956;6.918;2023-04-24T02:24:48;99720.81;;;9.17;70.35
49473;BME280;67434;50.956;6.918;2023-04-24T02:27:16;99732.69;;;9.11;70.37
49473;BME280;67434;50.956;6.918;2023-04-24T02:29:42;99725.66;;;9.10;70.04
49473;BME280;67434;50.956;6.918;2023-04-24T02:32:07;99726.50;;;9.05;70.33
49473;BME280;67434;50.956;6.918;2023-04-24T02:34:36;99725.13;;;9.08;70.10
49473;BME280;67434;50.956;6.918;2023-04-24T02:37:01;99738.34;;;9.04;70.35
49473;BME280;67434;50.956;6.918;2023-04-24T02:39:26;99724.88;;;8.99;70.79
49473;BME280;67434;50.956;6.918;2023-04-24T02:41:52;99734.28;;;8.92;71.23
49473;BME280;67434;50.956;6.918;2023-04-24T02:44:17;99731.88;;;8.90;71.07
49473;BME280;67434;50.956;6.918;2023-04-24T02:46:42;99739.44;;;8.98;71.34
49473;BME280;67434;50.956;6.918;2023-04-24T02:49:08;99737.53;;;9.14;70.18
49473;BME280;67434;50.956;6.918;2023-04-24T02:51:33;99751.00;;;9.19;70.17
49473;BME280;67434;50.956;6.918;2023-04-24T02:53:58;99741.00;;;9.25;70.30
49473;BME280;67434;50.956;6.918;2023-04-24T02:56:24;99755.56;;;9.29;69.90
49473;BME280;67434;50.956;6.918;2023-04-24T02:58:49;99755.59;;;9.34;70.08
49473;BME280;67434;50.956;6.918;2023-04-24T03:01:20;99766.06;;;9.46;69.38
49473;BME280;67434;50.956;6.918;2023-04-24T03:03:45;99759.59;;;9.47;68.99
49473;BME280;67434;50.956;6.918;2023-04-24T03:06:11;99763.91;;;9.48;69.15
49473;BME280;67434;50.956;6.918;2023-04-24T03:08:37;99770.09;;;9.48;69.14
49473;BME280;67434;50.956;6.918;2023-04-24T03:11:02;99764.72;;;9.48;69.55
49473;BME280;67434;50.956;6.918;2023-04-24T03:13:27;99766.06;;;9.46;69.25
49473;BME280;67434;50.956;6.918;2023-04-24T03:15:52;99761.22;;;9.48;69.39
49473;BME280;67434;50.956;6.918;2023-04-24T03:18:19;99766.03;;;9.56;68.74
49473;BME280;67434;50.956;6.918;2023-04-24T03:20:47;99760.13;;;9.49;69.25
49473;BME280;67434;50.956;6.918;2023-04-24T03:23:13;99772.00;;;9.43;69.44
49473;BME280;67434;50.956;6.918;2023-04-24T03:25:38;99767.69;;;9.42;68.92
49473;BME280;67434;50.956;6.918;2023-04-24T03:28:04;99772.00;;;9.48;68.76
49473;BME280;67434;50.956;6.918;2023-04-24T03:30:29;99774.69;;;9.48;68.67
49473;BME280;67434;50.956;6.918;2023-04-24T03:32:56;99779.28;;;9.42;68.91
49473;BME280;67434;50.956;6.918;2023-04-24T03:35:21;99774.72;;;9.43;68.76
49473;BME280;67434;50.956;6.918;2023-04-24T03:37:47;99776.59;;;9.42;69.27
49473;BME280;67434;50.956;6.918;2023-04-24T03:40:19;99770.13;;;9.38;68.51
49473;BME280;67434;50.956;6.918;2023-04-24T03:42:47;99761.50;;;9.21;69.19
49473;BME280;67434;50.956;6.918;2023-04-24T03:45:12;99770.41;;;9.11;69.81
49473;BME280;67434;50.956;6.918;2023-04-24T03:47:38;99767.72;;;9.11;69.37
49473;BME280;67434;50.956;6.918;2023-04-24T03:50:03;99773.13;;;9.06;69.40
49473;BME280;67434;50.956;6.918;2023-04-24T03:52:28;99769.06;;;9.08;69.65
49473;BME280;67434;50.956;6.918;2023-04-24T03:54:53;99771.78;;;9.14;69.30
49473;BME280;67434;50.956;6.918;2023-04-24T03:57:19;99778.22;;;9.18;69.06
49473;BME280;67434;50.956;6.918;2023-04-24T03:59:46;99772.56;;;9.24;69.03
49473;BME280;67434;50.956;6.918;2023-04-24T04:02:11;99772.84;;;9.23;69.00
49473;BME280;67434;50.956;6.918;2023-04-24T04:04:39;99780.91;;;9.23;69.27
49473;BME280;67434;50.956;6.918;2023-04-24T04:07:04;99778.22;;;9.28;68.59
49473;BME280;67434;50.956;6.918;2023-04-24T04:09:30;99772.28;;;9.21;68.84
49473;BME280;67434;50.956;6.918;2023-04-24T04:11:56;99769.88;;;9.19;68.92
49473;BME280;67434;50.956;6.918;2023-04-24T04:14:21;99779.03;;;9.18;68.99
49473;BME280;67434;50.956;6.918;2023-04-24T04:16:47;99781.19;;;9.21;68.88
49473;BME280;67434;50.956;6.918;2023-04-24T04:19:12;99778.78;;;9.20;68.96
49473;BME280;67434;50.956;6.918;2023-04-24T04:21:37;99779.56;;;9.25;68.60
49473;BME280;67434;50.956;6.918;2023-04-24T04:24:03;99777.41;;;9.27;68.78
49473;BME280;67434;50.956;6.918;2023-04-24T04:26:30;99778.50;;;9.21;68.90
49473;BME280;67434;50.956;6.918;2023-04-24T04:28:58;99781.47;;;9.20;68.90
49473;BME280;67434;50.956;6.918;2023-04-24T04:31:23;99781.19;;;9.21;69.21
49473;BME280;67434;50.956;6.918;2023-04-24T04:33:48;99780.66;;;9.24;68.95
49473;BME280;67434;50.956;6.918;2023-04-24T04:36:13;99784.41;;;9.28;68.82
49473;BME280;67434;50.956;6.918;2023-04-24T04:38:39;99793.06;;;9.25;69.17
49473;BME280;67434;50.956;6.918;2023-04-24T04:41:05;99788.75;;;9.29;68.94
49473;BME280;67434;50.956;6.918;2023-04-24T04:43:31;99784.97;;;9.25;69.40
49473;BME280;67434;50.956;6.918;2023-04-24T04:45:59;99790.66;;;9.34;68.98
49473;BME280;67434;50.956;6.918;2023-04-24T04:48:25;99791.44;;;9.34;68.71
49473;BME280;67434;50.956;6.918;2023-04-24T04:50:52;99786.31;;;9.28;69.43
49473;BME280;67434;50.956;6.918;2023-04-24T04:53:17;99792.25;;;9.35;69.12
49473;BME280;67434;50.956;6.918;2023-04-24T04:55:42;99792.78;;;9.37;69.08
49473;BME280;67434;50.956;6.918;2023-04-24T04:58:08;99798.97;;;9.43;68.90
49473;BME280;67434;50.956;6.918;2023-04-24T05:00:33;99801.41;;;9.44;68.65
49473;BME280;67434;50.956;6.918;2023-04-24T05:03:01;99793.88;;;9.36;68.99
49473;BME280;67434;50.956;6.918;2023-04-24T05:05:26;99795.75;;;9.35;69.68
49473;BME280;67434;50.956;6.918;2023-04-24T05:07:51;99802.50;;;9.43;68.77
49473;BME280;67434;50.956;6.918;2023-04-24T05:10:17;99810.31;;;9.39;69.32
49473;BME280;67434;50.956;6.918;2023-04-24T05:12:46;99800.31;;;9.50;68.98
49473;BME280;67434;50.956;6.918;2023-04-24T05:15:11;99804.91;;;9.45;69.13
49473;BME280;67434;50.956;6.918;2023-04-24T05:17:38;99809.22;;;9.46;69.12
49473;BME280;67434;50.956;6.918;2023-04-24T05:20:05;99809.22;;;9.46;69.26
49473;BME280;67434;50.956;6.918;2023-04-24T05:22:31;99813.28;;;9.48;68.87
49473;BME280;67434;50.956;6.918;2023-04-24T05:24:59;99817.84;;;9.48;68.57
49473;BME280;67434;50.956;6.918;2023-04-24T05:27:25;99823.81;;;9.45;68.89
49473;BME280;67434;50.956;6.918;2023-04-24T05:29:50;99824.59;;;9.50;68.97
49473;BME280;67434;50.956;6.918;2023-04-24T05:32:16;99824.31;;;9.52;68.44
49473;BME280;67434;50.956;6.918;2023-04-24T05:34:41;99835.66;;;9.49;69.13
49473;BME280;67434;50.956;6.918;2023-04-24T05:37:06;99830.25;;;9.54;68.68
49473;BME280;67434;50.956;6.918;2023-04-24T05:39:34;99830.78;;;9.56;68.76
49473;BME280;67434;50.956;6.918;2023-04-24T05:42:00;99836.44;;;9.59;68.78
49473;BME280;67434;50.956;6.918;2023-04-24T05:44:26;99838.88;;;9.56;68.84
49473;BME280;67434;50.956;6.918;2023-04-24T05:46:51;99843.75;;;9.59;68.53
49473;BME280;67434;50.956;6.918;2023-04-24T05:49:17;99845.09;;;9.51;69.33
49473;BME280;67434;50.956;6.918;2023-04-24T05:51:42;99838.88;;;9.61;69.62
49473;BME280;67434;50.956;6.918;2023-04-24T05:54:07;99834.56;;;9.55;69.55
49473;BME280;67434;50.956;6.918;2023-04-24T05:56:34;99835.09;;;9.57;70.06
49473;BME280;67434;50.956;6.918;2023-04-24T05:59:00;99838.31;;;9.64;70.13
49473;BME280;67434;50.956;6.918;2023-04-24T06:01:25;99832.13;;;9.63;69.37
49473;BME280;67434;50.956;6.918;2023-04-24T06:03:50;99835.63;;;9.79;68.66
49473;BME280;67434;50.956;6.918;2023-04-24T06:06:15;99837.25;;;9.80;69.00
49473;BME280;67434;50.956;6.918;2023-04-24T06:08:41;99843.19;;;9.77;68.37
49473;BME280;67434;50.956;6.918;2023-04-24T06:11:07;99846.97;;;9.71;68.95
49473;BME280;67434;50.956;6.918;2023-04-24T06:13:32;99849.69;;;9.71;68.72
49473;BME280;67434;50.956;6.918;2023-04-24T06:16:01;99845.91;;;9.67;69.33
49473;BME280;67434;50.956;6.918;2023-04-24T06:18:27;99835.91;;;9.67;70.33
49473;BME280;67434;50.956;6.918;2023-04-24T06:20:52;99846.97;;;9.61;69.93
49473;BME280;67434;50.956;6.918;2023-04-24T06:23:19;99852.38;;;9.61;70.75
49473;BME280;67434;50.956;6.918;2023-04-24T06:25:47;99854.25;;;9.65;70.91
49473;BME280;67434;50.956;6.918;2023-04-24T06:28:13;99853.19;;;9.56;71.04
49473;BME280;67434;50.956;6.918;2023-04-24T06:30:45;99854.00;;;9.57;71.82
49473;BME280;67434;50.956;6.918;2023-04-24T06:33:10;99861.81;;;9.48;71.95
49473;BME280;67434;50.956;6.918;2023-04-24T06:35:54;99861.84;;;9.38;72.17
49473;BME280;67434;50.956;6.918;2023-04-24T06:38:19;99865.91;;;9.30;72.42
49473;BME280;67434;50.956;6.918;2023-04-24T06:40:45;99854.81;;;9.27;73.25
49473;BME280;67434;50.956;6.918;2023-04-24T06:43:11;99876.38;;;9.17;74.65
49473;BME280;67434;50.956;6.918;2023-04-24T06:45:46;99875.28;;;9.02;75.36
49473;BME280;67434;50.956;6.918;2023-04-24T06:48:12;99882.59;;;9.12;77.09
49473;BME280;67434;50.956;6.918;2023-04-24T06:50:37;99877.72;;;9.09;75.76
49473;BME280;67434;50.956;6.918;2023-04-24T06:53:03;99878.53;;;9.04;76.45
49473;BME280;67434;50.956;6.918;2023-04-24T06:55:28;99878.78;;;8.93;77.21
49473;BME280;67434;50.956;6.918;2023-04-24T06:57:53;99874.72;;;8.85;78.32
49473;BME280;67434;50.956;6.918;2023-04-24T07:00:19;99873.88;;;8.80;78.33
49473;BME280;67434;50.956;6.918;2023-04-24T07:02:44;99885.75;;;8.78;78.96
49473;BME280;67434;50.956;6.918;2023-04-24T07:05:10;99882.25;;;8.83;79.30
49473;BME280;67434;50.956;6.918;2023-04-24T07:07:35;99878.75;;;8.88;79.09
49473;BME280;67434;50.956;6.918;2023-04-24T07:10:03;99875.50;;;8.81;79.26
49473;BME280;67434;50.956;6.918;2023-04-24T07:12:32;99886.81;;;8.77;80.83
49473;BME280;67434;50.956;6.918;2023-04-24T07:14:57;99886.81;;;8.72;80.70
49473;BME280;67434;50.956;6.918;2023-04-24T07:17:23;99889.25;;;8.84;80.95
49473;BME280;67434;50.956;6.918;2023-04-24T07:19:50;99879.81;;;8.82;80.86
49473;BME280;67434;50.956;6.918;2023-04-24T07:22:16;99886.28;;;8.81;81.09
49473;BME280;67434;50.956;6.918;2023-04-24T07:24:45;99893.28;;;8.76;81.52
49473;BME280;67434;50.956;6.918;2023-04-24T07:27:10;99911.88;;;8.73;81.98
49473;BME280;67434;50.956;6.918;2023-04-24T07:29:36;99902.97;;;8.72;82.10
49473;BME280;67434;50.956;6.918;2023-04-24T07:32:02;99916.44;;;8.72;81.49
49473;BME280;67434;50.956;6.918;2023-04-24T07:34:35;99922.63;;;8.63;80.83
49473;BME280;67434;50.956;6.918;2023-04-24T07:37:01;99925.78;;;8.55;80.26
49473;BME280;67434;50.956;6.918;2023-04-24T07:39:26;99926.03;;;8.48;81.59
49473;BME280;67434;50.956;6.918;2023-04-24T07:41:53;99924.56;;;8.25;83.53
49473;BME280;67434;50.956;6.918;2023-04-24T07:44:18;99938.28;;;8.24;82.48
49473;BME280;67434;50.956;6.918;2023-04-24T07:46:44;99948.22;;;8.18;82.69
49473;BME280;67434;50.956;6.918;2023-04-24T07:49:09;99930.56;;;7.95;81.33
49473;BME280;67434;50.956;6.918;2023-04-24T07:51:34;99945.66;;;8.01;82.77
49473;BME280;67434;50.956;6.918;2023-04-24T07:54:03;99960.41;;;7.89;82.23
49473;BME280;67434;50.956;6.918;2023-04-24T07:56:28;99961.91;;;7.79;83.17
49473;BME280;67434;50.956;6.918;2023-04-24T07:58:56;99962.50;;;7.81;83.86
49473;BME280;67434;50.956;6.918;2023-04-24T08:01:21;99971.31;;;7.77;83.55
49473;BME280;67434;50.956;6.918;2023-04-24T08:03:46;99962.53;;;7.55;82.56
49473;BME280;67434;50.956;6.918;2023-04-24T08:06:12;99977.31;;;7.52;83.85
49473;BME280;67434;50.956;6.918;2023-04-24T08:08:37;99983.78;;;7.56;84.35
49473;BME280;67434;50.956;6.918;2023-04-24T08:11:02;99981.19;;;7.39;83.61
49473;BME280;67434;50.956;6.918;2023-04-24T08:13:28;99982.50;;;7.37;84.70
49473;BME280;67434;50.956;6.918;2023-04-24T08:15:56;100005.09;;;7.36;84.89
49473;BME280;67434;50.956;6.918;2023-04-24T08:18:21;100001.78;;;7.29;85.47
49473;BME280;67434;50.956;6.918;2023-04-24T08:20:47;100010.31;;;7.20;84.06
49473;BME280;67434;50.956;6.918;2023-04-24T08:23:14;100016.16;;;7.12;83.67
49473;BME280;67434;50.956;6.918;2023-04-24T08:25:39;100015.50;;;7.05;83.94
49473;BME280;67434;50.956;6.918;2023-04-24T08:28:05;100026.94;;;6.96;85.33
49473;BME280;67434;50.956;6.918;2023-04-24T08:30:31;100022.06;;;6.93;84.48
49473;BME280;67434;50.956;6.918;2023-04-24T08:32:56;100031.56;;;7.00;85.26
49473;BME280;67434;50.956;6.918;2023-04-24T08:35:22;100031.75;;;6.94;83.99
49473;BME280;67434;50.956;6.918;2023-04-24T08:37:48;100027.69;;;6.91;84.67
49473;BME280;67434;50.956;6.918;2023-04-24T08:40:13;100042.19;;;6.90;84.56
49473;BME280;67434;50.956;6.918;2023-04-24T08:42:45;100043.31;;;6.94;84.09
49473;BME280;67434;50.956;6.918;2023-04-24T08:45:11;100049.00;;;6.98;84.21
49473;BME280;67434;50.956;6.918;2023-04-24T08:47:37;100046.56;;;6.96;83.89
49473;BME280;67434;50.956;6.918;2023-04-24T08:50:03;100051.06;;;6.90;83.54
49473;BME280;67434;50.956;6.918;2023-04-24T08:52:32;100043.63;;;6.98;85.85
49473;BME280;67434;50.956;6.918;2023-04-24T08:54:58;100058.69;;;6.99;84.78
49473;BME280;67434;50.956;6.918;2023-04-24T08:57:24;100056.50;;;6.96;83.95
49473;BME280;67434;50.956;6.918;2023-04-24T08:59:51;100057.31;;;6.96;85.40
49473;BME280;67434;50.956;6.918;2023-04-24T09:02:17;100063.75;;;6.95;85.44
49473;BME280;67434;50.956;6.918;2023-04-24T09:04:45;100079.00;;;6.89;84.99
49473;BME280;67434;50.956;6.918;2023-04-24T09:07:12;100079.06;;;6.95;85.14
49473;BME280;67434;50.956;6.918;2023-04-24T09:09:39;100074.56;;;7.00;85.60
49473;BME280;67434;50.956;6.918;2023-04-24T09:12:06;100096.72;;;7.07;86.31
49473;BME280;67434;50.956;6.918;2023-04-24T09:14:31;100075.94;;;7.03;85.16
49473;BME280;67434;50.956;6.918;2023-04-24T09:17:00;100094.25;;;7.06;86.00
49473;BME280;67434;50.956;6.918;2023-04-24T09:19:25;100100.59;;;7.16;85.96
49473;BME280;67434;50.956;6.918;2023-04-24T09:21:50;100109.63;;;7.32;85.72
49473;BME280;67434;50.956;6.918;2023-04-24T09:24:19;100110.81;;;7.41;85.04
49473;BME280;67434;50.956;6.918;2023-04-24T09:26:47;100121.72;;;7.51;85.86
49473;BME280;67434;50.956;6.918;2023-04-24T09:29:16;100127.34;;;7.50;84.91
49473;BME280;67434;50.956;6.918;2023-04-24T09:31:42;100137.03;;;7.51;85.53
49473;BME280;67434;50.956;6.918;2023-04-24T09:34:07;100141.72;;;7.61;85.56
49473;BME280;67434;50.956;6.918;2023-04-24T09:36:33;100155.66;;;7.58;86.62
49473;BME280;67434;50.956;6.918;2023-04-24T09:38:59;100150.53;;;7.56;85.29
49473;BME280;67434;50.956;6.918;2023-04-24T09:41:25;100154.97;;;7.67;85.26
49473;BME280;67434;50.956;6.918;2023-04-24T09:43:50;100161.78;;;7.75;86.16
49473;BME280;67434;50.956;6.918;2023-04-24T09:46:18;100158.97;;;7.87;84.63
49473;BME280;67434;50.956;6.918;2023-04-24T09:48:45;100156.84;;;7.89;84.51
49473;BME280;67434;50.956;6.918;2023-04-24T09:51:10;100163.69;;;8.01;85.13
49473;BME280;67434;50.956;6.918;2023-04-24T09:53:37;100168.91;;;8.13;84.00
49473;BME280;67434;50.956;6.918;2023-04-24T09:56:09;100170.94;;;8.28;84.92
49473;BME280;67434;50.956;6.918;2023-04-24T09:58:35;100168.50;;;8.53;83.43
49473;BME280;67434;50.956;6.918;2023-04-24T10:01:01;100188.59;;;8.72;82.22
49473;BME280;67434;50.956;6.918;2023-04-24T10:03:29;100183.53;;;8.81;81.47
49473;BME280;67434;50.956;6.918;2023-04-24T10:05:58;100185.81;;;8.94;81.72
49473;BME280;67434;50.956;6.918;2023-04-24T10:08:23;100192.06;;;9.05;80.75
49473;BME280;67434;50.956;6.918;2023-04-24T10:10:51;100197.97;;;9.02;81.40
49473;BME280;67434;50.956;6.918;2023-04-24T10:13:17;100193.63;;;8.96;80.29
49473;BME280;67434;50.956;6.918;2023-04-24T10:15:45;100200.81;;;9.27;80.00
49473;BME280;67434;50.956;6.918;2023-04-24T10:18:12;100195.53;;;9.48;80.51
49473;BME280;67434;50.956;6.918;2023-04-24T10:20:38;100203.28;;;9.91;79.31
49473;BME280;67434;50.956;6.918;2023-04-24T10:23:04;100209.22;;;9.98;78.21
49473;BME280;67434;50.956;6.918;2023-04-24T10:25:31;100206.25;;;9.95;77.57
49473;BME280;67434;50.956;6.918;2023-04-24T10:27:57;100212.00;;;10.14;78.04
49473;BME280;67434;50.956;6.918;2023-04-24T10:30:27;100215.47;;;10.04;76.75
49473;BME280;67434;50.956;6.918;2023-04-24T10:32:52;100216.91;;;10.37;76.64
49473;BME280;67434;50.956;6.918;2023-04-24T10:35:18;100208.31;;;10.45;75.75
49473;BME280;67434;50.956;6.918;2023-04-24T10:37:54;100224.19;;;10.26;74.78
49473;BME280;67434;50.956;6.918;2023-04-24T10:40:29;100217.56;;;9.82;76.50
49473;BME280;67434;50.956;6.918;2023-04-24T10:42:55;100218.34;;;9.77;75.82
49473;BME280;67434;50.956;6.918;2023-04-24T10:45:21;100220.22;;;9.71;76.96
49473;BME280;67434;50.956;6.918;2023-04-24T10:50:18;100225.09;;;9.75;77.41
49473;BME280;67434;50.956;6.918;2023-04-24T10:52:44;100223.81;;;10.02;77.81
49473;BME280;67434;50.956;6.918;2023-04-24T10:55:10;100231.44;;;10.16;75.90
49473;BME280;67434;50.956;6.918;2023-04-24T10:58:02;100235.53;;;10.23;75.22
49473;BME280;67434;50.956;6.918;2023-04-24T11:00:28;100244.66;;;10.12;75.84
49473;BME280;67434;50.956;6.918;2023-04-24T11:02:53;100245.06;;;10.46;75.29
49473;BME280;67434;50.956;6.918;2023-04-24T11:08:13;100247.81;;;9.89;75.43
49473;BME280;67434;50.956;6.918;2023-04-24T11:10:40;100249.66;;;9.73;75.99
49473;BME280;67434;50.956;6.918;2023-04-24T11:13:06;100248.75;;;9.57;77.46
49473;BME280;67434;50.956;6.918;2023-04-24T11:15:35;100258.47;;;9.58;78.58
49473;BME280;67434;50.956;6.918;2023-04-24T11:18:00;100263.03;;;9.58;78.89
49473;BME280;67434;50.956;6.918;2023-04-24T11:20:25;100263.72;;;9.85;78.69
49473;BME280;67434;50.956;6.918;2023-04-24T11:22:55;100272.88;;;9.79;77.89
49473;BME280;67434;50.956;6.918;2023-04-24T11:25:22;100268.53;;;9.73;78.20
49473;BME280;67434;50.956;6.918;2023-04-24T11:27:47;100280.31;;;9.57;79.37
49473;BME280;67434;50.956;6.918;2023-04-24T11:30:19;100275.34;;;9.86;77.91
49473;BME280;67434;50.956;6.918;2023-04-24T11:32:47;100279.84;;;10.27;77.12
49473;BME280;67434;50.956;6.918;2023-04-24T11:35:20;100276.41;;;10.62;75.78
49473;BME280;67434;50.956;6.918;2023-04-24T11:37:49;100281.28;;;10.60;75.60
49473;BME280;67434;50.956;6.918;2023-04-24T11:40:16;100277.69;;;10.29;76.05
49473;BME280;67434;50.956;6.918;2023-04-24T11:42:43;100279.03;;;10.22;77.53
49473;BME280;67434;50.956;6.918;2023-04-24T11:45:09;100294.78;;;10.50;76.95
49473;BME280;67434;50.956;6.918;2023-04-24T11:47:43;100296.44;;;10.77;74.97
49473;BME280;67434;50.956;6.918;2023-04-24T11:50:10;100291.59;;;10.99;72.60
49473;BME280;67434;50.956;6.918;2023-04-24T11:53:09;100282.66;;;11.04;72.03
49473;BME280;67434;50.956;6.918;2023-04-24T11:55:28;100287.25;;;10.98;73.92
49473;BME280;67434;50.956;6.918;2023-04-24T11:57:55;100295.09;;;10.94;73.67
49473;BME280;67434;50.956;6.918;2023-04-24T12:00:28;100294.84;;;10.86;73.78
49473;BME280;67434;50.956;6.918;2023-04-24T12:03:09;100301.59;;;11.04;73.26
49473;BME280;67434;50.956;6.918;2023-04-24T12:05:35;100295.34;;;11.44;71.48
49473;BME280;67434;50.956;6.918;2023-04-24T12:08:01;100298.28;;;11.78;70.26
49473;BME280;67434;50.956;6.918;2023-04-24T12:10:45;100306.13;;;11.79;70.49
49473;BME280;67434;50.956;6.918;2023-04-24T12:13:17;100298.34;;;11.52;69.03
49473;BME280;67434;50.956;6.918;2023-04-24T12:15:42;100301.84;;;11.38;68.61
49473;BME280;67434;50.956;6.918;2023-04-24T12:18:07;100305.91;;;11.45;70.20
49473;BME280;67434;50.956;6.918;2023-04-24T12:20:45;100316.72;;;11.55;69.61
49473;BME280;67434;50.956;6.918;2023-04-24T12:23:12;100315.13;;;11.39;68.51
49473;BME280;67434;50.956;6.918;2023-04-24T12:25:38;100314.84;;;11.46;67.80
49473;BME280;67434;50.956;6.918;2023-04-24T12:28:11;100314.81;;;11.51;68.35
49473;BME280;67434;50.956;6.918;2023-04-24T12:30:47;100310.44;;;11.75;68.40
49473;BME280;67434;50.956;6.918;2023-04-24T12:33:19;100311.56;;;11.49;68.01
49473;BME280;67434;50.956;6.918;2023-04-24T12:35:45;100319.66;;;11.95;66.85
49473;BME280;67434;50.956;6.918;2023-04-24T12:38:13;100315.59;;;11.92;66.33
49473;BME280;67434;50.956;6.918;2023-04-24T12:40:40;100322.28;;;12.10;65.61
49473;BME280;67434;50.956;6.918;2023-04-24T12:43:13;100318.44;;;12.31;64.58
49473;BME280;67434;50.956;6.918;2023-04-24T12:45:38;100328.78;;;12.14;63.54
49473;BME280;67434;50.956;6.918;2023-04-24T12:48:04;100322.94;;;11.61;65.40
49473;BME280;67434;50.956;6.918;2023-04-24T12:50:30;100328.91;;;11.53;66.10
49473;BME280;67434;50.956;6.918;2023-04-24T12:52:55;100332.72;;;11.26;66.64
49473;BME280;67434;50.956;6.918;2023-04-24T12:55:20;100336.47;;;11.00;67.53
49473;BME280;67434;50.956;6.918;2023-04-24T12:57:48;100340.53;;;10.87;68.49
49473;BME280;67434;50.956;6.918;2023-04-24T13:00:14;100348.13;;;11.01;68.58
49473;BME280;67434;50.956;6.918;2023-04-24T13:02:45;100347.84;;;11.48;67.65
49473;BME280;67434;50.956;6.918;2023-04-24T13:05:10;100345.09;;;11.99;66.58